sensor_id;sensor_type;location;lat;lon;timestamp;pressure;altitude;pressure_sealevel;temperature;humidity
15260;BME280;34462;51.368;12.364;2023-04-08T00:01:42;19344.41;;;-141.84;86.22
15260;BME280;34462;51.368;12.364;2023-04-08T00:04:10;19338.28;;;-141.84;84.58
15260;BME280;34462;51.368;12.364;2023-04-08T00:06:40;19313.91;;;-141.84;84.89
15260;BME280;34462;51.368;12.364;2023-04-08T00:09:10;19324.06;;;-141.84;85.35
15260;BME280;34462;51.368;12.364;2023-04-08T00:11:38;19356.59;;;-141.84;85.52
15260;BME280;34462;51.368;12.364;2023-04-08T00:14:06;19340.31;;;-141.84;84.92
15260;BME280;34462;51.368;12.364;2023-04-08T00:16:35;19324.06;;;-141.84;84.91
15260;BME280;34462;51.368;12.364;2023-04-08T00:19:03;19356.59;;;-141.84;84.90
15260;BME280;34462;51.368;12.364;2023-04-08T00:21:32;19297.66;;;-141.84;85.38
15260;BME280;34462;51.368;12.364;2023-04-08T00:24:00;19301.72;;;-141.84;86.38
15260;BME280;34462;51.368;12.364;2023-04-08T00:26:30;19332.19;;;-141.84;86.62
15260;BME280;34462;51.368;12.364;2023-04-08T00:28:58;19311.88;;;-141.84;86.32
15260;BME280;34462;51.368;12.364;2023-04-08T00:31:26;19299.69;;;-141.84;86.21
15260;BME280;34462;51.368;12.364;2023-04-08T00:33:54;19305.78;;;-141.84;85.12
15260;BME280;34462;51.368;12.364;2023-04-08T00:36:23;19301.72;;;-141.84;84.84
15260;BME280;34462;51.368;12.364;2023-04-08T00:38:52;19332.19;;;-141.84;85.14
15260;BME280;34462;51.368;12.364;2023-04-08T00:41:20;19338.28;;;-141.84;84.81
15260;BME280;34462;51.368;12.364;2023-04-08T00:43:51;19320.00;;;-141.84;85.36
15260;BME280;34462;51.368;12.364;2023-04-08T00:46:20;19328.13;;;-141.84;85.94
15260;BME280;34462;51.368;12.364;2023-04-08T00:48:48;19297.66;;;-141.84;85.89
15260;BME280;34462;51.368;12.364;2023-04-08T00:51:17;19297.66;;;-141.84;86.06
15260;BME280;34462;51.368;12.364;2023-04-08T00:53:46;19311.88;;;-141.84;86.07
15260;BME280;34462;51.368;12.364;2023-04-08T00:56:14;19289.53;;;-141.84;86.06
15260;BME280;34462;51.368;12.364;2023-04-08T00:58:42;19317.97;;;-141.84;85.38
15260;BME280;34462;51.368;12.364;2023-04-08T01:01:20;19309.84;;;-141.84;85.04
15260;BME280;34462;51.368;12.364;2023-04-08T01:04:05;19332.19;;;-141.84;85.60
15260;BME280;34462;51.368;12.364;2023-04-08T01:06:43;19330.16;;;-141.84;85.77
15260;BME280;34462;51.368;12.364;2023-04-08T01:09:20;19307.81;;;-141.84;85.96
15260;BME280;34462;51.368;12.364;2023-04-08T01:11:52;19309.84;;;-141.84;85.82
15260;BME280;34462;51.368;12.364;2023-04-08T01:14:25;19287.50;;;-141.84;86.15
15260;BME280;34462;51.368;12.364;2023-04-08T01:16:59;19324.06;;;-141.84;85.89
15260;BME280;34462;51.368;12.364;2023-04-08T01:19:34;19297.66;;;-141.84;85.74
15260;BME280;34462;51.368;12.364;2023-04-08T01:22:12;19305.78;;;-141.84;85.77
15260;BME280;34462;51.368;12.364;2023-04-08T01:24:44;19285.47;;;-141.84;85.15
15260;BME280;34462;51.368;12.364;2023-04-08T01:27:16;19283.44;;;-141.84;85.08
15260;BME280;34462;51.368;12.364;2023-04-08T01:29:47;19285.47;;;-141.84;84.96
15260;BME280;34462;51.368;12.364;2023-04-08T01:32:17;19291.56;;;-141.84;85.12
15260;BME280;34462;51.368;12.364;2023-04-08T01:34:46;19261.06;;;-141.84;85.93
15260;BME280;34462;51.368;12.364;2023-04-08T01:37:15;19287.50;;;-141.84;86.48
15260;BME280;34462;51.368;12.364;2023-04-08T01:39:46;19324.06;;;-141.84;85.49
15260;BME280;34462;51.368;12.364;2023-04-08T01:42:17;19289.53;;;-141.84;85.04
15260;BME280;34462;51.368;12.364;2023-04-08T01:44:45;19317.97;;;-141.84;85.50
15260;BME280;34462;51.368;12.364;2023-04-08T01:47:15;19285.47;;;-141.84;85.52
15260;BME280;34462;51.368;12.364;2023-04-08T01:49:44;19293.59;;;-141.84;85.33
15260;BME280;34462;51.368;12.364;2023-04-08T01:52:17;19283.44;;;-141.84;84.68
15260;BME280;34462;51.368;12.364;2023-04-08T01:54:46;19317.97;;;-141.84;84.36
15260;BME280;34462;51.368;12.364;2023-04-08T01:57:21;19317.97;;;-141.84;84.76
15260;BME280;34462;51.368;12.364;2023-04-08T01:59:52;19289.53;;;-141.84;84.97
15260;BME280;34462;51.368;12.364;2023-04-08T02:02:26;19281.41;;;-141.84;85.79
15260;BME280;34462;51.368;12.364;2023-04-08T02:04:56;19301.72;;;-141.84;85.59
15260;BME280;34462;51.368;12.364;2023-04-08T02:07:25;19295.63;;;-141.84;85.79
15260;BME280;34462;51.368;12.364;2023-04-08T02:09:53;19297.66;;;-141.84;85.91
15260;BME280;34462;51.368;12.364;2023-04-08T02:12:24;19311.88;;;-141.84;85.75
15260;BME280;34462;51.368;12.364;2023-04-08T02:14:54;19317.97;;;-141.84;85.52
15260;BME280;34462;51.368;12.364;2023-04-08T02:17:30;19297.66;;;-141.84;84.72
15260;BME280;34462;51.368;12.364;2023-04-08T02:20:06;19332.19;;;-141.84;85.31
15260;BME280;34462;51.368;12.364;2023-04-08T02:22:41;19315.94;;;-141.84;85.56
15260;BME280;34462;51.368;12.364;2023-04-08T02:25:14;19297.66;;;-141.84;84.95
15260;BME280;34462;51.368;12.364;2023-04-08T02:27:45;19330.16;;;-141.84;85.39
15260;BME280;34462;51.368;12.364;2023-04-08T02:30:16;19267.16;;;-141.84;85.15
15260;BME280;34462;51.368;12.364;2023-04-08T02:32:46;19297.66;;;-141.84;85.24
15260;BME280;34462;51.368;12.364;2023-04-08T02:35:16;19289.53;;;-141.84;85.79
15260;BME280;34462;51.368;12.364;2023-04-08T02:37:46;19293.59;;;-141.84;85.64
15260;BME280;34462;51.368;12.364;2023-04-08T02:40:26;19305.78;;;-141.84;85.72
15260;BME280;34462;51.368;12.364;2023-04-08T02:42:56;19328.13;;;-141.84;85.08
15260;BME280;34462;51.368;12.364;2023-04-08T02:45:28;19305.78;;;-141.84;84.83
15260;BME280;34462;51.368;12.364;2023-04-08T02:47:59;19271.25;;;-141.84;85.38
15260;BME280;34462;51.368;12.364;2023-04-08T02:50:27;19322.03;;;-141.84;85.61
15260;BME280;34462;51.368;12.364;2023-04-08T02:52:55;19273.28;;;-141.84;85.91
15260;BME280;34462;51.368;12.364;2023-04-08T02:55:24;19289.53;;;-141.84;85.91
15260;BME280;34462;51.368;12.364;2023-04-08T02:57:52;19277.34;;;-141.84;85.25
15260;BME280;34462;51.368;12.364;2023-04-08T03:00:21;19283.44;;;-141.84;85.56
15260;BME280;34462;51.368;12.364;2023-04-08T03:02:49;19295.63;;;-141.84;85.87
15260;BME280;34462;51.368;12.364;2023-04-08T03:05:18;19281.41;;;-141.84;85.70
15260;BME280;34462;51.368;12.364;2023-04-08T03:07:47;19297.66;;;-141.84;86.04
15260;BME280;34462;51.368;12.364;2023-04-08T03:10:15;19305.78;;;-141.84;84.75
15260;BME280;34462;51.368;12.364;2023-04-08T03:12:43;19301.72;;;-141.84;84.86
15260;BME280;34462;51.368;12.364;2023-04-08T03:15:11;19295.63;;;-141.84;85.42
15260;BME280;34462;51.368;12.364;2023-04-08T03:17:41;19295.63;;;-141.84;85.49
15260;BME280;34462;51.368;12.364;2023-04-08T03:20:10;19295.63;;;-141.84;85.58
15260;BME280;34462;51.368;12.364;2023-04-08T03:22:38;19301.72;;;-141.84;84.78
15260;BME280;34462;51.368;12.364;2023-04-08T03:25:08;19311.88;;;-141.84;85.12
15260;BME280;34462;51.368;12.364;2023-04-08T03:27:37;19295.63;;;-141.84;85.20
15260;BME280;34462;51.368;12.364;2023-04-08T03:30:07;19291.56;;;-141.84;86.13
15260;BME280;34462;51.368;12.364;2023-04-08T03:32:35;19267.16;;;-141.84;86.14
15260;BME280;34462;51.368;12.364;2023-04-08T03:35:06;19273.28;;;-141.84;86.85
15260;BME280;34462;51.368;12.364;2023-04-08T03:37:34;19297.66;;;-141.84;86.29
15260;BME280;34462;51.368;12.364;2023-04-08T03:40:03;19277.34;;;-141.84;86.74
15260;BME280;34462;51.368;12.364;2023-04-08T03:42:32;19295.63;;;-141.84;86.14
15260;BME280;34462;51.368;12.364;2023-04-08T03:45:00;19277.34;;;-141.84;85.76
15260;BME280;34462;51.368;12.364;2023-04-08T03:47:29;19301.72;;;-141.84;85.95
15260;BME280;34462;51.368;12.364;2023-04-08T03:49:58;19281.41;;;-141.84;84.99
15260;BME280;34462;51.368;12.364;2023-04-08T03:52:27;19281.41;;;-141.84;85.54
15260;BME280;34462;51.368;12.364;2023-04-08T03:54:56;19261.06;;;-141.84;86.10
15260;BME280;34462;51.368;12.364;2023-04-08T03:57:24;19289.53;;;-141.84;85.92
15260;BME280;34462;51.368;12.364;2023-04-08T03:59:52;19254.97;;;-141.84;85.61
15260;BME280;34462;51.368;12.364;2023-04-08T04:02:21;19230.59;;;-141.84;86.30
15260;BME280;34462;51.368;12.364;2023-04-08T04:04:49;19277.34;;;-141.84;86.67
15260;BME280;34462;51.368;12.364;2023-04-08T04:07:17;19248.88;;;-141.84;85.92
15260;BME280;34462;51.368;12.364;2023-04-08T04:09:47;19287.50;;;-141.84;86.53
15260;BME280;34462;51.368;12.364;2023-04-08T04:12:15;19267.16;;;-141.84;87.36
15260;BME280;34462;51.368;12.364;2023-04-08T04:14:43;19285.47;;;-141.84;87.36
15260;BME280;34462;51.368;12.364;2023-04-08T04:17:12;19234.66;;;-141.84;87.87
15260;BME280;34462;51.368;12.364;2023-04-08T04:19:40;19277.34;;;-141.84;87.56
15260;BME280;34462;51.368;12.364;2023-04-08T04:22:08;19240.75;;;-141.84;87.10
15260;BME280;34462;51.368;12.364;2023-04-08T04:24:37;19244.81;;;-141.84;87.21
15260;BME280;34462;51.368;12.364;2023-04-08T04:27:07;19263.09;;;-141.84;87.49
15260;BME280;34462;51.368;12.364;2023-04-08T04:29:35;19281.41;;;-141.84;87.88
15260;BME280;34462;51.368;12.364;2023-04-08T04:32:03;19240.75;;;-141.84;87.85
15260;BME280;34462;51.368;12.364;2023-04-08T04:34:32;19246.84;;;-141.84;87.74
15260;BME280;34462;51.368;12.364;2023-04-08T04:37:00;19240.75;;;-141.84;87.75
15260;BME280;34462;51.368;12.364;2023-04-08T04:39:28;19271.25;;;-141.84;87.71
15260;BME280;34462;51.368;12.364;2023-04-08T04:41:56;19254.97;;;-141.84;87.65
15260;BME280;34462;51.368;12.364;2023-04-08T04:44:26;19248.88;;;-141.84;87.81
15260;BME280;34462;51.368;12.364;2023-04-08T04:46:54;19289.53;;;-141.84;87.97
15260;BME280;34462;51.368;12.364;2023-04-08T04:49:22;19281.41;;;-141.84;87.96
15260;BME280;34462;51.368;12.364;2023-04-08T04:51:51;19275.31;;;-141.84;87.59
15260;BME280;34462;51.368;12.364;2023-04-08T04:54:19;19265.13;;;-141.84;88.16
15260;BME280;34462;51.368;12.364;2023-04-08T04:56:47;19283.44;;;-141.84;88.13
15260;BME280;34462;51.368;12.364;2023-04-08T04:59:16;19277.34;;;-141.84;86.89
15260;BME280;34462;51.368;12.364;2023-04-08T05:01:46;19248.88;;;-141.84;86.64
15260;BME280;34462;51.368;12.364;2023-04-08T05:04:14;19295.63;;;-141.84;87.14
15260;BME280;34462;51.368;12.364;2023-04-08T05:06:42;19238.72;;;-141.84;87.53
15260;BME280;34462;51.368;12.364;2023-04-08T05:09:11;19291.56;;;-141.84;88.47
15260;BME280;34462;51.368;12.364;2023-04-08T05:11:39;19230.59;;;-141.84;87.97
15260;BME280;34462;51.368;12.364;2023-04-08T05:14:07;19259.03;;;-141.84;87.42
15260;BME280;34462;51.368;12.364;2023-04-08T05:16:35;19285.47;;;-141.84;86.82
15260;BME280;34462;51.368;12.364;2023-04-08T05:19:06;19275.31;;;-141.84;86.30
15260;BME280;34462;51.368;12.364;2023-04-08T05:21:34;19265.13;;;-141.84;86.64
15260;BME280;34462;51.368;12.364;2023-04-08T05:24:02;19265.13;;;-141.84;86.83
15260;BME280;34462;51.368;12.364;2023-04-08T05:26:30;19273.28;;;-141.84;86.79
15260;BME280;34462;51.368;12.364;2023-04-08T05:28:58;19281.41;;;-141.84;86.69
15260;BME280;34462;51.368;12.364;2023-04-08T05:31:27;19257.00;;;-141.84;86.34
15260;BME280;34462;51.368;12.364;2023-04-08T05:33:55;19269.22;;;-141.84;85.88
15260;BME280;34462;51.368;12.364;2023-04-08T05:36:25;19259.03;;;-141.84;86.52
15260;BME280;34462;51.368;12.364;2023-04-08T05:38:54;19293.59;;;-141.84;85.95
15260;BME280;34462;51.368;12.364;2023-04-08T05:41:22;19257.00;;;-141.84;86.57
15260;BME280;34462;51.368;12.364;2023-04-08T05:43:50;19271.25;;;-141.84;86.69
15260;BME280;34462;51.368;12.364;2023-04-08T05:46:18;19332.19;;;-141.84;86.94
15260;BME280;34462;51.368;12.364;2023-04-08T05:48:46;19271.25;;;-141.84;87.35
15260;BME280;34462;51.368;12.364;2023-04-08T05:51:15;19259.03;;;-141.84;87.26
15260;BME280;34462;51.368;12.364;2023-04-08T05:53:45;19261.06;;;-141.84;87.88
15260;BME280;34462;51.368;12.364;2023-04-08T05:56:14;19259.03;;;-141.84;88.16
15260;BME280;34462;51.368;12.364;2023-04-08T05:58:42;19248.88;;;-141.84;88.02
15260;BME280;34462;51.368;12.364;2023-04-08T06:01:10;19248.88;;;-141.84;88.32
15260;BME280;34462;51.368;12.364;2023-04-08T06:03:38;19232.63;;;-141.84;88.67
15260;BME280;34462;51.368;12.364;2023-04-08T06:06:09;19224.50;;;-141.84;89.00
15260;BME280;34462;51.368;12.364;2023-04-08T06:08:38;19236.69;;;-141.84;88.81
15260;BME280;34462;51.368;12.364;2023-04-08T06:11:07;19242.78;;;-141.84;88.69
15260;BME280;34462;51.368;12.364;2023-04-08T06:13:35;19271.25;;;-141.84;88.26
15260;BME280;34462;51.368;12.364;2023-04-08T06:16:11;19281.41;;;-141.84;87.88
15260;BME280;34462;51.368;12.364;2023-04-08T06:18:39;19226.53;;;-141.84;88.09
15260;BME280;34462;51.368;12.364;2023-04-08T06:21:07;19254.97;;;-141.84;88.78
15260;BME280;34462;51.368;12.364;2023-04-08T06:23:37;19250.91;;;-141.84;88.73
15260;BME280;34462;51.368;12.364;2023-04-08T06:26:06;19242.78;;;-141.84;88.15
15260;BME280;34462;51.368;12.364;2023-04-08T06:28:34;19261.06;;;-141.84;87.63
15260;BME280;34462;51.368;12.364;2023-04-08T06:31:03;19259.03;;;-141.84;87.63
15260;BME280;34462;51.368;12.364;2023-04-08T06:33:32;19289.53;;;-141.84;87.58
15260;BME280;34462;51.368;12.364;2023-04-08T06:36:03;19281.41;;;-141.84;87.63
15260;BME280;34462;51.368;12.364;2023-04-08T06:38:32;19263.09;;;-141.84;87.21
15260;BME280;34462;51.368;12.364;2023-04-08T06:41:03;19287.50;;;-141.84;87.40
15260;BME280;34462;51.368;12.364;2023-04-08T06:43:34;19279.38;;;-141.84;87.32
15260;BME280;34462;51.368;12.364;2023-04-08T06:46:04;19305.78;;;-141.84;87.65
15260;BME280;34462;51.368;12.364;2023-04-08T06:48:32;19281.41;;;-141.84;88.44
15260;BME280;34462;51.368;12.364;2023-04-08T06:51:01;19297.66;;;-141.84;88.22
15260;BME280;34462;51.368;12.364;2023-04-08T06:53:29;19297.66;;;-141.84;87.34
15260;BME280;34462;51.368;12.364;2023-04-08T06:55:59;19252.94;;;-141.84;87.28
15260;BME280;34462;51.368;12.364;2023-04-08T06:58:27;19293.59;;;-141.84;87.81
15260;BME280;34462;51.368;12.364;2023-04-08T07:00:58;19313.91;;;-141.84;86.85
15260;BME280;34462;51.368;12.364;2023-04-08T07:03:27;19289.53;;;-141.84;86.09
15260;BME280;34462;51.368;12.364;2023-04-08T07:05:55;19305.78;;;-141.84;86.66
15260;BME280;34462;51.368;12.364;2023-04-08T07:08:23;19273.28;;;-141.84;86.73
15260;BME280;34462;51.368;12.364;2023-04-08T07:10:52;19326.09;;;-141.84;86.51
15260;BME280;34462;51.368;12.364;2023-04-08T07:13:20;19326.09;;;-141.84;85.58
15260;BME280;34462;51.368;12.364;2023-04-08T07:15:49;19350.50;;;-141.84;84.99
15260;BME280;34462;51.368;12.364;2023-04-08T07:18:19;19352.53;;;-141.84;84.82
15260;BME280;34462;51.368;12.364;2023-04-08T07:20:50;19360.66;;;-141.84;84.16
15260;BME280;34462;51.368;12.364;2023-04-08T07:23:19;19370.81;;;-141.84;84.23
15260;BME280;34462;51.368;12.364;2023-04-08T07:25:47;19350.50;;;-141.84;85.66
15260;BME280;34462;51.368;12.364;2023-04-08T07:28:15;19362.69;;;-141.84;84.78
15260;BME280;34462;51.368;12.364;2023-04-08T07:30:44;19356.59;;;-141.84;84.60
15260;BME280;34462;51.368;12.364;2023-04-08T07:33:13;19385.03;;;-141.84;84.57
15260;BME280;34462;51.368;12.364;2023-04-08T07:35:43;19320.00;;;-141.84;85.07
15260;BME280;34462;51.368;12.364;2023-04-08T07:38:11;19358.63;;;-141.84;85.31
15260;BME280;34462;51.368;12.364;2023-04-08T07:40:39;19362.69;;;-141.84;85.46
15260;BME280;34462;51.368;12.364;2023-04-08T07:43:07;19352.53;;;-141.84;85.25
15260;BME280;34462;51.368;12.364;2023-04-08T07:45:35;19366.75;;;-141.84;84.56
15260;BME280;34462;51.368;12.364;2023-04-08T07:48:04;19364.72;;;-141.84;85.02
15260;BME280;34462;51.368;12.364;2023-04-08T07:50:34;19385.03;;;-141.84;84.02
15260;BME280;34462;51.368;12.364;2023-04-08T07:53:24;19372.84;;;-141.84;83.65
15260;BME280;34462;51.368;12.364;2023-04-08T07:55:52;19387.06;;;-141.84;83.16
15260;BME280;34462;51.368;12.364;2023-04-08T07:58:20;19391.13;;;-141.84;82.26
15260;BME280;34462;51.368;12.364;2023-04-08T08:00:50;19439.91;;;-141.84;82.20
15260;BME280;34462;51.368;12.364;2023-04-08T08:03:18;19439.91;;;-141.84;81.28
15260;BME280;34462;51.368;12.364;2023-04-08T08:05:46;19498.84;;;-141.84;79.24
15260;BME280;34462;51.368;12.364;2023-04-08T08:08:14;19472.41;;;-141.84;77.74
15260;BME280;34462;51.368;12.364;2023-04-08T08:10:44;19464.28;;;-141.84;78.45
15260;BME280;34462;51.368;12.364;2023-04-08T08:13:12;19490.72;;;-141.84;78.51
15260;BME280;34462;51.368;12.364;2023-04-08T08:15:42;19474.44;;;-141.84;78.68
15260;BME280;34462;51.368;12.364;2023-04-08T08:18:11;19460.22;;;-141.84;79.05
15260;BME280;34462;51.368;12.364;2023-04-08T08:20:39;19466.31;;;-141.84;78.20
15260;BME280;34462;51.368;12.364;2023-04-08T08:23:07;19462.25;;;-141.84;78.76
15260;BME280;34462;51.368;12.364;2023-04-08T08:25:35;19490.72;;;-141.84;77.87
15260;BME280;34462;51.368;12.364;2023-04-08T08:28:05;19535.41;;;-141.84;76.58
15260;BME280;34462;51.368;12.364;2023-04-08T08:30:33;19543.53;;;-141.84;76.49
15260;BME280;34462;51.368;12.364;2023-04-08T08:33:01;19555.75;;;-141.84;74.16
15260;BME280;34462;51.368;12.364;2023-04-08T08:35:29;19561.84;;;-141.84;75.03
15260;BME280;34462;51.368;12.364;2023-04-08T08:37:57;19559.81;;;-141.84;75.74
15260;BME280;34462;51.368;12.364;2023-04-08T08:40:25;19580.13;;;-141.84;75.52
15260;BME280;34462;51.368;12.364;2023-04-08T08:42:54;19596.38;;;-141.84;73.34
15260;BME280;34462;51.368;12.364;2023-04-08T08:45:26;19594.34;;;-141.84;73.94
15260;BME280;34462;51.368;12.364;2023-04-08T08:47:55;19630.94;;;-141.84;71.59
15260;BME280;34462;51.368;12.364;2023-04-08T08:50:23;19582.16;;;-141.84;72.52
15260;BME280;34462;51.368;12.364;2023-04-08T08:52:52;19582.16;;;-141.84;73.25
15260;BME280;34462;51.368;12.364;2023-04-08T08:55:21;19610.59;;;-141.84;72.55
15260;BME280;34462;51.368;12.364;2023-04-08T08:57:52;19610.59;;;-141.84;72.45
15260;BME280;34462;51.368;12.364;2023-04-08T09:00:32;19578.09;;;-141.84;72.64
15260;BME280;34462;51.368;12.364;2023-04-08T09:03:18;19598.41;;;-141.84;73.40
15260;BME280;34462;51.368;12.364;2023-04-08T09:05:49;19645.16;;;-141.84;71.83
15260;BME280;34462;51.368;12.364;2023-04-08T09:08:30;19675.63;;;-141.84;70.88
15260;BME280;34462;51.368;12.364;2023-04-08T09:11:13;19647.19;;;-141.84;72.31
15260;BME280;34462;51.368;12.364;2023-04-08T09:13:43;19661.41;;;-141.84;70.51
15260;BME280;34462;51.368;12.364;2023-04-08T09:16:14;19671.56;;;-141.84;70.93
15260;BME280;34462;51.368;12.364;2023-04-08T09:18:46;19710.19;;;-141.84;70.67
15260;BME280;34462;51.368;12.364;2023-04-08T09:21:16;19681.75;;;-141.84;69.82
15260;BME280;34462;51.368;12.364;2023-04-08T09:23:47;19720.34;;;-141.84;68.48
15260;BME280;34462;51.368;12.364;2023-04-08T09:26:18;19720.34;;;-141.84;69.46
15260;BME280;34462;51.368;12.364;2023-04-08T09:29:00;19687.84;;;-141.84;69.59
15260;BME280;34462;51.368;12.364;2023-04-08T09:31:45;19649.22;;;-141.84;70.72
15260;BME280;34462;51.368;12.364;2023-04-08T09:34:15;19624.84;;;-141.84;71.64
15260;BME280;34462;51.368;12.364;2023-04-08T09:36:46;19614.66;;;-141.84;72.54
15260;BME280;34462;51.368;12.364;2023-04-08T09:39:15;19600.44;;;-141.84;73.62
15260;BME280;34462;51.368;12.364;2023-04-08T09:41:47;19523.22;;;-141.84;74.40
15260;BME280;34462;51.368;12.364;2023-04-08T09:44:17;19555.75;;;-141.84;74.42
15260;BME280;34462;51.368;12.364;2023-04-08T09:47:00;19549.63;;;-141.84;74.52
15260;BME280;34462;51.368;12.364;2023-04-08T09:49:36;19541.50;;;-141.84;74.54
15260;BME280;34462;51.368;12.364;2023-04-08T09:52:07;19559.81;;;-141.84;74.48
15260;BME280;34462;51.368;12.364;2023-04-08T09:54:47;19533.38;;;-141.84;74.75
15260;BME280;34462;51.368;12.364;2023-04-08T09:57:27;19533.38;;;-141.84;75.36
15260;BME280;34462;51.368;12.364;2023-04-08T10:00:06;19567.94;;;-141.84;75.72
15260;BME280;34462;51.368;12.364;2023-04-08T10:02:46;19551.69;;;-141.84;75.39
15260;BME280;34462;51.368;12.364;2023-04-08T10:05:17;19604.50;;;-141.84;74.24
15260;BME280;34462;51.368;12.364;2023-04-08T10:07:47;19535.41;;;-141.84;74.75
15260;BME280;34462;51.368;12.364;2023-04-08T10:10:16;19547.59;;;-141.84;75.04
15260;BME280;34462;51.368;12.364;2023-04-08T10:12:44;19559.81;;;-141.84;74.97
15260;BME280;34462;51.368;12.364;2023-04-08T10:15:24;19511.03;;;-141.84;76.62
15260;BME280;34462;51.368;12.364;2023-04-08T10:18:03;19557.78;;;-141.84;76.35
15260;BME280;34462;51.368;12.364;2023-04-08T10:20:47;19576.06;;;-141.84;74.40
15260;BME280;34462;51.368;12.364;2023-04-08T10:23:17;19578.09;;;-141.84;74.49
15260;BME280;34462;51.368;12.364;2023-04-08T10:25:47;19608.56;;;-141.84;73.78
15260;BME280;34462;51.368;12.364;2023-04-08T10:28:25;19606.53;;;-141.84;73.20
15260;BME280;34462;51.368;12.364;2023-04-08T10:30:55;19588.25;;;-141.84;74.61
15260;BME280;34462;51.368;12.364;2023-04-08T10:33:31;19578.09;;;-141.84;74.58
15260;BME280;34462;51.368;12.364;2023-04-08T10:36:09;19588.25;;;-141.84;75.08
15260;BME280;34462;51.368;12.364;2023-04-08T10:38:39;19565.91;;;-141.84;75.78
15260;BME280;34462;51.368;12.364;2023-04-08T10:41:09;19535.41;;;-141.84;76.39
15260;BME280;34462;51.368;12.364;2023-04-08T10:43:38;19547.59;;;-141.84;73.96
15260;BME280;34462;51.368;12.364;2023-04-08T10:46:09;19582.16;;;-141.84;73.64
15260;BME280;34462;51.368;12.364;2023-04-08T10:48:38;19594.34;;;-141.84;73.98
15260;BME280;34462;51.368;12.364;2023-04-08T10:51:08;19641.09;;;-141.84;72.46
15260;BME280;34462;51.368;12.364;2023-04-08T10:53:37;19667.50;;;-141.84;70.32
15260;BME280;34462;51.368;12.364;2023-04-08T10:56:08;19728.47;;;-141.84;68.68
15260;BME280;34462;51.368;12.364;2023-04-08T10:58:48;19797.59;;;-141.84;67.47
15260;BME280;34462;51.368;12.364;2023-04-08T11:01:17;19771.16;;;-141.84;67.68
15260;BME280;34462;51.368;12.364;2023-04-08T11:03:46;19758.97;;;-141.84;67.55
15260;BME280;34462;51.368;12.364;2023-04-08T11:06:16;19740.69;;;-141.84;68.22
15260;BME280;34462;51.368;12.364;2023-04-08T11:08:45;19793.50;;;-141.84;66.45
15260;BME280;34462;51.368;12.364;2023-04-08T11:11:14;19797.59;;;-141.84;67.22
15260;BME280;34462;51.368;12.364;2023-04-08T11:13:45;19785.38;;;-141.84;67.19
15260;BME280;34462;51.368;12.364;2023-04-08T11:16:20;19803.69;;;-141.84;65.89
15260;BME280;34462;51.368;12.364;2023-04-08T11:18:50;19858.56;;;-141.84;65.56
15260;BME280;34462;51.368;12.364;2023-04-08T11:21:20;19907.31;;;-141.84;64.95
15260;BME280;34462;51.368;12.364;2023-04-08T11:23:50;19974.41;;;-141.84;63.52
15260;BME280;34462;51.368;12.364;2023-04-08T11:26:20;19933.75;;;-141.84;62.13
15260;BME280;34462;51.368;12.364;2023-04-08T11:28:48;20002.84;;;-141.84;60.86
15260;BME280;34462;51.368;12.364;2023-04-08T11:31:19;20006.91;;;-141.84;59.18
15260;BME280;34462;51.368;12.364;2023-04-08T11:33:53;20061.78;;;-141.84;59.55
15260;BME280;34462;51.368;12.364;2023-04-08T11:36:23;20049.59;;;-141.84;57.89
15260;BME280;34462;51.368;12.364;2023-04-08T11:38:53;20120.75;;;-141.84;56.66
15260;BME280;34462;51.368;12.364;2023-04-08T11:41:22;20061.78;;;-141.84;56.89
15260;BME280;34462;51.368;12.364;2023-04-08T11:43:55;20013.00;;;-141.84;58.28
15260;BME280;34462;51.368;12.364;2023-04-08T11:46:23;20031.31;;;-141.84;59.17
15260;BME280;34462;51.368;12.364;2023-04-08T11:49:06;20047.56;;;-141.84;58.32
15260;BME280;34462;51.368;12.364;2023-04-08T11:51:56;19956.09;;;-141.84;59.81
15260;BME280;34462;51.368;12.364;2023-04-08T11:54:26;19893.09;;;-141.84;61.12
15260;BME280;34462;51.368;12.364;2023-04-08T11:56:55;19903.25;;;-141.84;62.00
15260;BME280;34462;51.368;12.364;2023-04-08T11:59:24;19897.16;;;-141.84;62.67
15260;BME280;34462;51.368;12.364;2023-04-08T12:01:55;19943.91;;;-141.84;62.71
15260;BME280;34462;51.368;12.364;2023-04-08T12:04:24;19982.53;;;-141.84;60.88
15260;BME280;34462;51.368;12.364;2023-04-08T12:06:53;19988.63;;;-141.84;61.68
15260;BME280;34462;51.368;12.364;2023-04-08T12:09:24;19952.03;;;-141.84;61.02
15260;BME280;34462;51.368;12.364;2023-04-08T12:11:53;20019.13;;;-141.84;59.92
15260;BME280;34462;51.368;12.364;2023-04-08T12:14:22;20029.28;;;-141.84;59.21
15260;BME280;34462;51.368;12.364;2023-04-08T12:16:54;19986.59;;;-141.84;59.37
15260;BME280;34462;51.368;12.364;2023-04-08T12:19:22;19962.19;;;-141.84;60.66
15260;BME280;34462;51.368;12.364;2023-04-08T12:21:50;19905.28;;;-141.84;60.32
15260;BME280;34462;51.368;12.364;2023-04-08T12:24:20;19931.72;;;-141.84;61.05
15260;BME280;34462;51.368;12.364;2023-04-08T12:26:48;19927.66;;;-141.84;60.52
15260;BME280;34462;51.368;12.364;2023-04-08T12:29:16;19899.19;;;-141.84;60.61
15260;BME280;34462;51.368;12.364;2023-04-08T12:31:44;19907.31;;;-141.84;61.19
15260;BME280;34462;51.368;12.364;2023-04-08T12:34:13;19941.88;;;-141.84;60.64
15260;BME280;34462;51.368;12.364;2023-04-08T12:36:41;19943.91;;;-141.84;60.91
15260;BME280;34462;51.368;12.364;2023-04-08T12:39:10;19947.97;;;-141.84;60.75
15260;BME280;34462;51.368;12.364;2023-04-08T12:41:40;19954.06;;;-141.84;59.76
15260;BME280;34462;51.368;12.364;2023-04-08T12:44:08;19933.75;;;-141.84;59.71
15260;BME280;34462;51.368;12.364;2023-04-08T12:46:36;19917.50;;;-141.84;59.98